sensor_id;sensor_type;location;lat;lon;timestamp;pressure;altitude;pressure_sealevel;temperature;humidity
70745;BME280;59284;31.390;34.904;2022-12-18T00:01:52;95487.91;;;16.63;100.00
70745;BME280;59284;31.390;34.904;2022-12-18T00:04:24;95478.19;;;16.72;100.00
70745;BME280;59284;31.390;34.904;2022-12-18T00:06:49;95483.13;;;16.56;100.00
70745;BME280;59284;31.390;34.904;2022-12-18T00:09:16;95478.81;;;16.52;100.00
70745;BME280;59284;31.390;34.904;2022-12-18T00:11:41;95483.56;;;16.50;100.00
70745;BME280;59284;31.390;34.904;2022-12-18T00:14:09;95486.69;;;16.52;100.00
70745;BME280;59284;31.390;34.904;2022-12-18T00:16:36;95489.13;;;16.48;100.00
70745;BME280;59284;31.390;34.904;2022-12-18T00:19:02;95478.81;;;16.52;100.00
70745;BME280;59284;31.390;34.904;2022-12-18T00:21:32;95479.13;;;16.59;100.00
70745;BME280;59284;31.390;34.904;2022-12-18T00:23:59;95464.34;;;16.63;100.00
70745;BME280;59284;31.390;34.904;2022-12-18T00:26:28;95474.03;;;16.62;100.00
70745;BME280;59284;31.390;34.904;2022-12-18T00:28:54;95467.41;;;16.56;100.00
70745;BME280;59284;31.390;34.904;2022-12-18T00:31:24;95464.78;;;16.65;100.00
70745;BME280;59284;31.390;34.904;2022-12-18T00:33:50;95467.88;;;16.67;100.00
70745;BME280;59284;31.390;34.904;2022-12-18T00:36:19;95457.41;;;16.58;100.00
70745;BME280;59284;31.390;34.904;2022-12-18T00:38:45;95461.41;;;16.56;100.00
70745;BME280;59284;31.390;34.904;2022-12-18T00:41:13;95464.81;;;16.56;100.00
70745;BME280;59284;31.390;34.904;2022-12-18T00:43:39;95460.78;;;16.50;100.00
70745;BME280;59284;31.390;34.904;2022-12-18T00:46:05;95459.56;;;16.65;100.00
70745;BME280;59284;31.390;34.904;2022-12-18T00:48:32;95458.19;;;16.59;100.00
70745;BME280;59284;31.390;34.904;2022-12-18T00:50:57;95461.56;;;16.51;100.00
70745;BME280;59284;31.390;34.904;2022-12-18T00:53:24;95448.63;;;16.46;100.00
70745;BME280;59284;31.390;34.904;2022-12-18T00:55:50;95450.91;;;16.47;100.00
70745;BME280;59284;31.390;34.904;2022-12-18T00:58:16;95446.78;;;16.55;100.00
70745;BME280;59284;31.390;34.904;2022-12-18T01:00:43;95449.53;;;16.50;100.00
70745;BME280;59284;31.390;34.904;2022-12-18T01:03:10;95446.44;;;16.48;100.00
70745;BME280;59284;31.390;34.904;2022-12-18T01:05:40;95450.94;;;16.56;100.00
70745;BME280;59284;31.390;34.904;2022-12-18T01:08:06;95445.38;;;16.40;100.00
70745;BME280;59284;31.390;34.904;2022-12-18T01:10:31;95444.59;;;16.40;100.00
70745;BME280;59284;31.390;34.904;2022-12-18T01:12:57;95446.75;;;16.38;100.00
70745;BME280;59284;31.390;34.904;2022-12-18T01:15:23;95442.59;;;16.45;100.00
70745;BME280;59284;31.390;34.904;2022-12-18T01:17:52;95439.53;;;16.52;100.00
70745;BME280;59284;31.390;34.904;2022-12-18T01:20:18;95441.38;;;16.43;100.00
70745;BME280;59284;31.390;34.904;2022-12-18T01:22:47;95444.13;;;16.46;100.00
70745;BME280;59284;31.390;34.904;2022-12-18T01:25:12;95445.22;;;16.37;100.00
70745;BME280;59284;31.390;34.904;2022-12-18T01:27:38;95450.91;;;16.39;100.00
70745;BME280;59284;31.390;34.904;2022-12-18T01:30:05;95443.50;;;16.49;100.00
70745;BME280;59284;31.390;34.904;2022-12-18T01:32:32;95450.31;;;16.50;100.00
70745;BME280;59284;31.390;34.904;2022-12-18T01:34:58;95441.06;;;16.36;100.00
70745;BME280;59284;31.390;34.904;2022-12-18T01:37:26;95447.22;;;16.48;100.00
70745;BME280;59284;31.390;34.904;2022-12-18T01:39:52;95437.97;;;16.42;100.00
70745;BME280;59284;31.390;34.904;2022-12-18T01:42:19;95437.38;;;16.37;100.00
70745;BME280;59284;31.390;34.904;2022-12-18T01:45:36;95433.34;;;16.48;100.00
70745;BME280;59284;31.390;34.904;2022-12-18T01:48:03;95440.59;;;16.42;100.00
70745;BME280;59284;31.390;34.904;2022-12-18T01:50:36;95434.25;;;16.35;100.00
70745;BME280;59284;31.390;34.904;2022-12-18T01:53:10;95441.38;;;16.34;100.00
70745;BME280;59284;31.390;34.904;2022-12-18T01:55:40;95439.81;;;16.33;100.00
70745;BME280;59284;31.390;34.904;2022-12-18T01:58:07;95431.97;;;16.25;100.00
70745;BME280;59284;31.390;34.904;2022-12-18T02:00:34;95443.06;;;16.22;100.00
70745;BME280;59284;31.390;34.904;2022-12-18T02:03:00;95438.41;;;16.18;100.00
70745;BME280;59284;31.390;34.904;2022-12-18T02:05:33;95439.06;;;16.24;100.00
70745;BME280;59284;31.390;34.904;2022-12-18T02:14:07;95450.16;;;16.38;100.00
70745;BME280;59284;31.390;34.904;2022-12-18T02:17:19;95444.75;;;16.35;100.00
70745;BME280;59284;31.390;34.904;2022-12-18T02:25:12;95451.81;;;16.17;100.00
70745;BME280;59284;31.390;34.904;2022-12-18T02:27:39;95444.56;;;16.05;100.00
70745;BME280;59284;31.390;34.904;2022-12-18T02:30:07;95442.41;;;16.07;100.00
70745;BME280;59284;31.390;34.904;2022-12-18T02:32:38;95445.22;;;16.11;100.00
70745;BME280;59284;31.390;34.904;2022-12-18T02:35:09;95450.72;;;16.01;100.00
70745;BME280;59284;31.390;34.904;2022-12-18T02:37:38;95450.72;;;16.09;100.00
70745;BME280;59284;31.390;34.904;2022-12-18T02:40:05;95450.28;;;16.07;100.00
70745;BME280;59284;31.390;34.904;2022-12-18T02:42:32;95456.13;;;16.04;100.00
70745;BME280;59284;31.390;34.904;2022-12-18T02:44:59;95462.44;;;16.12;100.00
70745;BME280;59284;31.390;34.904;2022-12-18T02:47:30;95457.38;;;16.15;100.00
70745;BME280;59284;31.390;34.904;2022-12-18T02:50:22;95471.53;;;16.14;100.00
70745;BME280;59284;31.390;34.904;2022-12-18T03:04:08;95474.28;;;16.01;100.00
70745;BME280;59284;31.390;34.904;2022-12-18T03:06:44;95475.84;;;16.10;100.00
70745;BME280;59284;31.390;34.904;2022-12-18T03:09:25;95473.69;;;16.21;100.00
70745;BME280;59284;31.390;34.904;2022-12-18T03:12:26;95471.84;;;16.13;100.00
70745;BME280;59284;31.390;34.904;2022-12-18T03:15:16;95486.31;;;16.19;100.00
70745;BME280;59284;31.390;34.904;2022-12-18T03:17:59;95491.41;;;16.15;100.00
70745;BME280;59284;31.390;34.904;2022-12-18T03:20:29;95489.53;;;16.07;100.00
70745;BME280;59284;31.390;34.904;2022-12-18T03:23:01;95502.63;;;16.07;100.00
70745;BME280;59284;31.390;34.904;2022-12-18T03:25:30;95505.88;;;16.04;100.00
70745;BME280;59284;31.390;34.904;2022-12-18T03:28:00;95502.00;;;16.02;100.00
70745;BME280;59284;31.390;34.904;2022-12-18T03:30:30;95508.31;;;16.01;100.00
70745;BME280;59284;31.390;34.904;2022-12-18T03:33:16;95510.94;;;16.09;100.00
70745;BME280;59284;31.390;34.904;2022-12-18T03:35:45;95507.69;;;15.95;100.00
70745;BME280;59284;31.390;34.904;2022-12-18T03:38:13;95516.28;;;15.96;100.00
70745;BME280;59284;31.390;34.904;2022-12-18T03:43:32;95519.41;;;16.06;100.00
70745;BME280;59284;31.390;34.904;2022-12-18T03:46:17;95521.13;;;16.11;100.00
70745;BME280;59284;31.390;34.904;2022-12-18T03:48:54;95526.34;;;16.11;100.00
70745;BME280;59284;31.390;34.904;2022-12-18T03:51:40;95532.63;;;16.01;100.00
70745;BME280;59284;31.390;34.904;2022-12-18T03:54:08;95531.84;;;15.92;100.00
70745;BME280;59284;31.390;34.904;2022-12-18T03:56:48;95527.25;;;16.06;100.00
70745;BME280;59284;31.390;34.904;2022-12-18T03:59:17;95527.38;;;15.93;100.00
70745;BME280;59284;31.390;34.904;2022-12-18T04:01:49;95525.69;;;15.97;100.00
70745;BME280;59284;31.390;34.904;2022-12-18T04:04:17;95527.06;;;15.94;100.00
70745;BME280;59284;31.390;34.904;2022-12-18T04:06:45;95533.84;;;15.95;100.00
70745;BME280;59284;31.390;34.904;2022-12-18T04:09:13;95539.38;;;15.94;100.00
70745;BME280;59284;31.390;34.904;2022-12-18T04:11:41;95531.19;;;15.87;100.00
70745;BME280;59284;31.390;34.904;2022-12-18T04:14:09;95546.44;;;15.85;100.00
70745;BME280;59284;31.390;34.904;2022-12-18T04:16:35;95545.53;;;15.89;100.00
70745;BME280;59284;31.390;34.904;2022-12-18T04:19:01;95537.66;;;15.89;100.00
70745;BME280;59284;31.390;34.904;2022-12-18T04:21:29;95550.16;;;15.92;100.00
70745;BME280;59284;31.390;34.904;2022-12-18T04:23:55;95551.84;;;15.88;100.00
70745;BME280;59284;31.390;34.904;2022-12-18T04:26:21;95553.97;;;15.86;100.00
70745;BME280;59284;31.390;34.904;2022-12-18T04:28:47;95555.84;;;15.86;100.00
70745;BME280;59284;31.390;34.904;2022-12-18T04:31:15;95549.06;;;15.93;100.00
70745;BME280;59284;31.390;34.904;2022-12-18T04:33:40;95551.09;;;15.96;100.00
70745;BME280;59284;31.390;34.904;2022-12-18T04:36:07;95558.63;;;15.98;100.00
70745;BME280;59284;31.390;34.904;2022-12-18T04:38:32;95555.84;;;15.94;100.00
70745;BME280;59284;31.390;34.904;2022-12-18T04:40:58;95557.25;;;16.00;100.00
70745;BME280;59284;31.390;34.904;2022-12-18T04:43:24;95550.75;;;15.89;100.00
70745;BME280;59284;31.390;34.904;2022-12-18T04:45:50;95554.78;;;15.95;100.00
70745;BME280;59284;31.390;34.904;2022-12-18T04:48:16;95553.09;;;15.99;100.00
70745;BME280;59284;31.390;34.904;2022-12-18T04:50:42;95556.00;;;15.98;100.00
70745;BME280;59284;31.390;34.904;2022-12-18T04:53:08;95557.91;;;16.06;100.00
70745;BME280;59284;31.390;34.904;2022-12-18T04:55:33;95561.00;;;16.16;100.00
70745;BME280;59284;31.390;34.904;2022-12-18T04:57:59;95550.03;;;16.06;100.00
70745;BME280;59284;31.390;34.904;2022-12-18T05:00:29;95553.44;;;16.15;100.00
70745;BME280;59284;31.390;34.904;2022-12-18T05:02:54;95565.03;;;16.23;100.00
70745;BME280;59284;31.390;34.904;2022-12-18T05:05:20;95564.38;;;16.17;100.00
70745;BME280;59284;31.390;34.904;2022-12-18T05:07:47;95561.50;;;16.36;100.00
70745;BME280;59284;31.390;34.904;2022-12-18T05:10:12;95563.78;;;16.29;100.00
70745;BME280;59284;31.390;34.904;2022-12-18T05:12:38;95564.59;;;16.46;100.00
70745;BME280;59284;31.390;34.904;2022-12-18T05:15:24;95569.22;;;16.49;100.00
70745;BME280;59284;31.390;34.904;2022-12-18T05:17:49;95558.31;;;16.56;100.00
70745;BME280;59284;31.390;34.904;2022-12-18T05:20:15;95572.19;;;16.65;100.00
70745;BME280;59284;31.390;34.904;2022-12-18T05:22:41;95572.38;;;16.60;100.00
70745;BME280;59284;31.390;34.904;2022-12-18T05:25:07;95568.38;;;16.71;100.00
70745;BME280;59284;31.390;34.904;2022-12-18T05:27:33;95577.47;;;16.73;100.00
70745;BME280;59284;31.390;34.904;2022-12-18T05:29:59;95579.91;;;16.70;100.00
70745;BME280;59284;31.390;34.904;2022-12-18T05:32:24;95580.41;;;16.80;100.00
70745;BME280;59284;31.390;34.904;2022-12-18T05:34:53;95581.63;;;16.92;100.00
70745;BME280;59284;31.390;34.904;2022-12-18T05:37:22;95580.06;;;16.99;100.00
70745;BME280;59284;31.390;34.904;2022-12-18T05:39:48;95570.81;;;17.02;100.00
70745;BME280;59284;31.390;34.904;2022-12-18T05:42:19;95563.88;;;17.14;100.00
70745;BME280;59284;31.390;34.904;2022-12-18T05:44:45;95581.31;;;17.19;100.00
70745;BME280;59284;31.390;34.904;2022-12-18T05:47:11;95567.25;;;17.23;100.00
70745;BME280;59284;31.390;34.904;2022-12-18T05:49:36;95579.91;;;17.21;100.00
70745;BME280;59284;31.390;34.904;2022-12-18T05:52:02;95576.66;;;17.33;100.00
70745;BME280;59284;31.390;34.904;2022-12-18T05:54:28;95573.56;;;17.39;100.00
70745;BME280;59284;31.390;34.904;2022-12-18T05:56:54;95584.06;;;17.57;100.00
70745;BME280;59284;31.390;34.904;2022-12-18T05:59:22;95578.16;;;17.60;100.00
70745;BME280;59284;31.390;34.904;2022-12-18T06:01:50;95582.47;;;17.73;100.00
70745;BME280;59284;31.390;34.904;2022-12-18T06:04:19;95584.47;;;17.67;100.00
70745;BME280;59284;31.390;34.904;2022-12-18T06:06:45;95592.28;;;17.84;100.00
70745;BME280;59284;31.390;34.904;2022-12-18T06:09:11;95592.47;;;17.79;100.00
70745;BME280;59284;31.390;34.904;2022-12-18T06:11:38;95585.50;;;17.83;100.00
70745;BME280;59284;31.390;34.904;2022-12-18T06:14:05;95587.19;;;17.88;100.00
70745;BME280;59284;31.390;34.904;2022-12-18T06:16:32;95588.59;;;18.14;100.00
70745;BME280;59284;31.390;34.904;2022-12-18T06:19:40;95579.44;;;18.29;100.00
70745;BME280;59284;31.390;34.904;2022-12-18T06:22:10;95585.91;;;18.32;100.00
70745;BME280;59284;31.390;34.904;2022-12-18T06:24:37;95590.66;;;18.38;100.00
70745;BME280;59284;31.390;34.904;2022-12-18T06:27:03;95592.28;;;18.51;100.00
70745;BME280;59284;31.390;34.904;2022-12-18T06:29:30;95582.88;;;18.50;100.00
70745;BME280;59284;31.390;34.904;2022-12-18T06:31:55;95596.50;;;18.73;100.00
70745;BME280;59284;31.390;34.904;2022-12-18T06:34:21;95599.75;;;18.70;100.00
70745;BME280;59284;31.390;34.904;2022-12-18T06:36:47;95590.34;;;18.89;100.00
70745;BME280;59284;31.390;34.904;2022-12-18T06:39:14;95599.75;;;18.90;100.00
70745;BME280;59284;31.390;34.904;2022-12-18T06:41:42;95594.94;;;18.92;100.00
70745;BME280;59284;31.390;34.904;2022-12-18T06:44:08;95593.34;;;19.00;100.00
70745;BME280;59284;31.390;34.904;2022-12-18T06:46:33;95592.88;;;19.19;100.00
70745;BME280;59284;31.390;34.904;2022-12-18T06:48:59;95603.47;;;19.31;100.00
70745;BME280;59284;31.390;34.904;2022-12-18T06:51:25;95595.25;;;19.32;100.00
70745;BME280;59284;31.390;34.904;2022-12-18T06:53:51;95596.44;;;19.02;100.00
70745;BME280;59284;31.390;34.904;2022-12-18T06:56:16;95600.34;;;19.17;100.00
70745;BME280;59284;31.390;34.904;2022-12-18T06:58:42;95586.31;;;19.45;100.00
70745;BME280;59284;31.390;34.904;2022-12-18T07:01:10;95597.72;;;19.94;100.00
70745;BME280;59284;31.390;34.904;2022-12-18T07:03:38;95583.19;;;22.11;100.00
70745;BME280;59284;31.390;34.904;2022-12-18T07:06:05;95588.63;;;23.03;100.00
70745;BME280;59284;31.390;34.904;2022-12-18T07:08:32;95591.22;;;23.57;100.00
70745;BME280;59284;31.390;34.904;2022-12-18T07:10:58;95591.69;;;23.44;100.00
70745;BME280;59284;31.390;34.904;2022-12-18T07:13:27;95595.44;;;24.26;100.00
70745;BME280;59284;31.390;34.904;2022-12-18T07:15:52;95591.78;;;23.89;100.00
70745;BME280;59284;31.390;34.904;2022-12-18T07:18:18;95601.34;;;24.69;100.00
70745;BME280;59284;31.390;34.904;2022-12-18T07:20:44;95592.63;;;24.94;100.00
70745;BME280;59284;31.390;34.904;2022-12-18T07:23:10;95606.00;;;24.49;100.00
70745;BME280;59284;31.390;34.904;2022-12-18T07:25:36;95610.59;;;22.69;100.00
70745;BME280;59284;31.390;34.904;2022-12-18T07:28:03;95615.59;;;21.81;100.00
70745;BME280;59284;31.390;34.904;2022-12-18T07:30:30;95608.28;;;21.46;100.00
70745;BME280;59284;31.390;34.904;2022-12-18T07:32:55;95609.53;;;21.09;100.00
70745;BME280;59284;31.390;34.904;2022-12-18T07:35:21;95617.22;;;21.14;100.00
70745;BME280;59284;31.390;34.904;2022-12-18T07:37:46;95601.44;;;20.90;100.00
70745;BME280;59284;31.390;34.904;2022-12-18T07:40:12;95611.78;;;21.23;100.00
70745;BME280;59284;31.390;34.904;2022-12-18T07:42:38;95612.25;;;21.52;100.00
70745;BME280;59284;31.390;34.904;2022-12-18T07:45:04;95611.91;;;23.52;100.00
70745;BME280;59284;31.390;34.904;2022-12-18T07:47:36;95592.63;;;25.98;100.00
70745;BME280;59284;31.390;34.904;2022-12-18T07:50:03;95598.63;;;27.72;100.00
70745;BME280;59284;31.390;34.904;2022-12-18T07:52:29;95595.25;;;26.89;100.00
70745;BME280;59284;31.390;34.904;2022-12-18T07:54:54;95587.09;;;27.43;100.00
70745;BME280;59284;31.390;34.904;2022-12-18T07:57:26;95592.09;;;27.66;100.00
70745;BME280;59284;31.390;34.904;2022-12-18T07:59:52;95586.31;;;26.67;100.00
70745;BME280;59284;31.390;34.904;2022-12-18T08:02:20;95577.25;;;27.79;100.00
70745;BME280;59284;31.390;34.904;2022-12-18T08:04:46;95580.38;;;28.13;100.00
70745;BME280;59284;31.390;34.904;2022-12-18T08:07:12;95576.31;;;27.15;100.00
70745;BME280;59284;31.390;34.904;2022-12-18T08:09:41;95583.34;;;28.96;100.00
70745;BME280;59284;31.390;34.904;2022-12-18T08:12:06;95579.59;;;28.23;100.00
70745;BME280;59284;31.390;34.904;2022-12-18T08:14:32;95568.00;;;29.14;100.00
70745;BME280;59284;31.390;34.904;2022-12-18T08:16:58;95572.34;;;28.51;100.00
70745;BME280;59284;31.390;34.904;2022-12-18T08:19:25;95563.56;;;27.84;100.00
70745;BME280;59284;31.390;34.904;2022-12-18T08:21:50;95553.69;;;28.16;100.00
70745;BME280;59284;31.390;34.904;2022-12-18T08:24:18;95544.00;;;29.83;100.00
70745;BME280;59284;31.390;34.904;2022-12-18T08:26:43;95548.34;;;27.88;100.00
70745;BME280;59284;31.390;34.904;2022-12-18T08:29:09;95556.28;;;27.53;100.00
70745;BME280;59284;31.390;34.904;2022-12-18T08:31:36;95544.53;;;27.96;100.00
70745;BME280;59284;31.390;34.904;2022-12-18T08:34:02;95536.81;;;28.83;100.00
70745;BME280;59284;31.390;34.904;2022-12-18T08:36:28;95517.72;;;29.64;100.00
70745;BME280;59284;31.390;34.904;2022-12-18T08:38:54;95523.13;;;31.20;100.00
70745;BME280;59284;31.390;34.904;2022-12-18T08:41:20;95529.97;;;30.13;100.00
70745;BME280;59284;31.390;34.904;2022-12-18T08:43:46;95517.88;;;30.79;100.00
70745;BME280;59284;31.390;34.904;2022-12-18T08:46:36;95514.44;;;31.39;100.00
70745;BME280;59284;31.390;34.904;2022-12-18T08:49:03;95512.56;;;29.94;100.00
70745;BME280;59284;31.390;34.904;2022-12-18T08:51:29;95505.25;;;30.02;100.00
70745;BME280;59284;31.390;34.904;2022-12-18T08:53:54;95506.59;;;29.76;100.00
70745;BME280;59284;31.390;34.904;2022-12-18T08:56:20;95512.28;;;29.81;100.00
70745;BME280;59284;31.390;34.904;2022-12-18T08:58:46;95503.81;;;31.05;100.00
70745;BME280;59284;31.390;34.904;2022-12-18T09:01:12;95493.75;;;30.79;100.00
70745;BME280;59284;31.390;34.904;2022-12-18T09:03:40;95490.84;;;30.26;100.00
70745;BME280;59284;31.390;34.904;2022-12-18T09:06:13;95485.47;;;30.29;100.00
70745;BME280;59284;31.390;34.904;2022-12-18T09:08:41;95486.75;;;31.49;100.00
70745;BME280;59284;31.390;34.904;2022-12-18T09:11:21;95473.97;;;31.57;100.00
70745;BME280;59284;31.390;34.904;2022-12-18T09:13:47;95474.78;;;32.04;100.00
70745;BME280;59284;31.390;34.904;2022-12-18T09:16:12;95459.09;;;32.45;100.00
70745;BME280;59284;31.390;34.904;2022-12-18T09:18:39;95451.75;;;31.30;100.00
70745;BME280;59284;31.390;34.904;2022-12-18T09:21:13;95457.22;;;31.76;100.00
70745;BME280;59284;31.390;34.904;2022-12-18T09:23:40;95450.22;;;31.59;100.00
70745;BME280;59284;31.390;34.904;2022-12-18T09:26:06;95448.25;;;32.29;100.00
70745;BME280;59284;31.390;34.904;2022-12-18T09:28:32;95443.09;;;33.33;100.00
70745;BME280;59284;31.390;34.904;2022-12-18T09:30:58;95431.97;;;31.97;100.00
70745;BME280;59284;31.390;34.904;2022-12-18T09:33:24;95437.78;;;31.68;100.00
70745;BME280;59284;31.390;34.904;2022-12-18T09:35:50;95428.16;;;32.17;100.00
70745;BME280;59284;31.390;34.904;2022-12-18T09:38:17;95421.53;;;32.65;100.00
70745;BME280;59284;31.390;34.904;2022-12-18T09:40:50;95415.63;;;31.64;100.00
70745;BME280;59284;31.390;34.904;2022-12-18T09:43:29;95409.00;;;32.94;100.00
70745;BME280;59284;31.390;34.904;2022-12-18T09:46:01;95402.56;;;31.66;100.00
70745;BME280;59284;31.390;34.904;2022-12-18T09:48:35;95408.94;;;30.99;100.00
70745;BME280;59284;31.390;34.904;2022-12-18T09:51:24;95399.88;;;30.90;100.00
70745;BME280;59284;31.390;34.904;2022-12-18T09:54:14;95383.47;;;32.46;100.00
70745;BME280;59284;31.390;34.904;2022-12-18T09:56:42;95383.03;;;32.87;100.00
70745;BME280;59284;31.390;34.904;2022-12-18T09:59:35;95374.72;;;32.42;100.00
70745;BME280;59284;31.390;34.904;2022-12-18T10:02:19;95382.66;;;31.41;100.00
70745;BME280;59284;31.390;34.904;2022-12-18T10:10:36;95362.78;;;31.15;100.00
70745;BME280;59284;31.390;34.904;2022-12-18T10:13:18;95364.16;;;32.16;100.00
70745;BME280;59284;31.390;34.904;2022-12-18T10:15:58;95364.91;;;30.40;100.00
70745;BME280;59284;31.390;34.904;2022-12-18T10:21:23;95351.59;;;31.66;100.00
70745;BME280;59284;31.390;34.904;2022-12-18T10:24:08;95345.16;;;32.07;100.00
70745;BME280;59284;31.390;34.904;2022-12-18T10:26:38;95351.59;;;32.48;100.00
70745;BME280;59284;31.390;34.904;2022-12-18T10:29:13;95340.41;;;33.82;100.00
70745;BME280;59284;31.390;34.904;2022-12-18T10:31:39;95344.53;;;31.99;100.00
70745;BME280;59284;31.390;34.904;2022-12-18T10:34:18;95338.38;;;30.79;100.00
70745;BME280;59284;31.390;34.904;2022-12-18T10:36:43;95331.63;;;33.82;100.00
70745;BME280;59284;31.390;34.904;2022-12-18T10:39:18;95323.03;;;33.71;100.00
70745;BME280;59284;31.390;34.904;2022-12-18T10:41:44;95330.66;;;31.11;100.00
70745;BME280;59284;31.390;34.904;2022-12-18T10:44:26;95325.84;;;33.51;100.00
70745;BME280;59284;31.390;34.904;2022-12-18T10:46:55;95332.34;;;32.70;100.00
70745;BME280;59284;31.390;34.904;2022-12-18T10:49:31;95323.19;;;32.12;100.00
70745;BME280;59284;31.390;34.904;2022-12-18T10:52:24;95313.25;;;33.32;100.00
70745;BME280;59284;31.390;34.904;2022-12-18T10:54:54;95316.78;;;33.45;100.00
70745;BME280;59284;31.390;34.904;2022-12-18T10:57:34;95304.22;;;34.00;95.67
70745;BME280;59284;31.390;34.904;2022-12-18T11:00:24;95308.63;;;32.29;100.00
70745;BME280;59284;31.390;34.904;2022-12-18T11:02:51;95313.28;;;32.44;100.00
70745;BME280;59284;31.390;34.904;2022-12-18T11:05:35;95302.97;;;32.79;98.71
70745;BME280;59284;31.390;34.904;2022-12-18T11:08:02;95319.97;;;31.77;100.00
70745;BME280;59284;31.390;34.904;2022-12-18T11:10:37;95298.75;;;32.62;100.00
70745;BME280;59284;31.390;34.904;2022-12-18T11:13:11;95298.78;;;31.83;100.00
70745;BME280;59284;31.390;34.904;2022-12-18T11:15:41;95294.31;;;34.63;96.49
70745;BME280;59284;31.390;34.904;2022-12-18T11:18:20;95297.34;;;32.73;100.00
70745;BME280;59284;31.390;34.904;2022-12-18T11:20:55;95287.19;;;33.61;97.84
70745;BME280;59284;31.390;34.904;2022-12-18T11:23:23;95288.53;;;31.78;99.98
70745;BME280;59284;31.390;34.904;2022-12-18T11:25:55;95286.50;;;32.77;98.64
70745;BME280;59284;31.390;34.904;2022-12-18T11:28:39;95289.38;;;32.86;98.47
70745;BME280;59284;31.390;34.904;2022-12-18T11:31:25;95287.16;;;33.90;96.29
70745;BME280;59284;31.390;34.904;2022-12-18T11:34:11;95278.03;;;32.42;97.89
70745;BME280;59284;31.390;34.904;2022-12-18T11:36:47;95294.03;;;31.71;98.81
70745;BME280;59284;31.390;34.904;2022-12-18T11:39:35;95271.28;;;33.06;94.18
70745;BME280;59284;31.390;34.904;2022-12-18T11:53:02;95278.34;;;32.28;91.82
70745;BME280;59284;31.390;34.904;2022-12-18T12:00:44;95277.66;;;33.12;87.57
70745;BME280;59284;31.390;34.904;2022-12-18T12:15:40;95276.09;;;32.79;86.35
70745;BME280;59284;31.390;34.904;2022-12-18T12:18:28;95274.66;;;33.83;84.69
70745;BME280;59284;31.390;34.904;2022-12-18T12:29:06;95275.56;;;33.03;84.59
70745;BME280;59284;31.390;34.904;2022-12-18T12:34:28;95278.75;;;33.14;86.32
70745;BME280;59284;31.390;34.904;2022-12-18T12:39:44;95274.66;;;32.90;86.84
70745;BME280;59284;31.390;34.904;2022-12-18T12:42:19;95275.78;;;33.09;84.17
70745;BME280;59284;31.390;34.904;2022-12-18T12:45:06;95263.66;;;33.78;83.33
70745;BME280;59284;31.390;34.904;2022-12-18T12:47:37;95267.22;;;32.82;84.44
70745;BME280;59284;31.390;34.904;2022-12-18T12:50:13;95257.97;;;32.67;84.70
70745;BME280;59284;31.390;34.904;2022-12-18T12:52:52;95261.97;;;33.39;83.73
70745;BME280;59284;31.390;34.904;2022-12-18T12:55:23;95254.59;;;33.72;82.22
70745;BME280;59284;31.390;34.904;2022-12-18T12:58:05;95262.91;;;31.97;83.20
70745;BME280;59284;31.390;34.904;2022-12-18T13:01:13;95254.50;;;34.04;79.88
70745;BME280;59284;31.390;34.904;2022-12-18T13:03:50;95260.94;;;33.04;83.88
70745;BME280;59284;31.390;34.904;2022-12-18T13:06:41;95268.00;;;33.88;82.81
70745;BME280;59284;31.390;34.904;2022-12-18T13:09:09;95264.41;;;33.50;81.77
70745;BME280;59284;31.390;34.904;2022-12-18T13:11:45;95264.63;;;32.94;79.23
70745;BME280;59284;31.390;34.904;2022-12-18T13:20:02;95268.31;;;32.84;80.75
70745;BME280;59284;31.390;34.904;2022-12-18T13:22:34;95270.06;;;30.94;85.80
70745;BME280;59284;31.390;34.904;2022-12-18T13:25:01;95269.75;;;32.37;84.34
70745;BME280;59284;31.390;34.904;2022-12-18T13:28:18;95279.50;;;31.26;88.18
70745;BME280;59284;31.390;34.904;2022-12-18T13:30:46;95265.88;;;32.38;85.95
70745;BME280;59284;31.390;34.904;2022-12-18T13:35:52;95271.94;;;31.44;86.96
70745;BME280;59284;31.390;34.904;2022-12-18T13:43:28;95273.34;;;29.92;88.52
70745;BME280;59284;31.390;34.904;2022-12-18T13:48:32;95263.97;;;30.40;87.38
70745;BME280;59284;31.390;34.904;2022-12-18T13:51:04;95275.81;;;29.75;89.81
70745;BME280;59284;31.390;34.904;2022-12-18T13:53:43;95271.22;;;30.40;91.24
70745;BME280;59284;31.390;34.904;2022-12-18T13:56:23;95275.81;;;29.75;92.54
70745;BME280;59284;31.390;34.904;2022-12-18T13:59:12;95278.19;;;29.66;95.32
70745;BME280;59284;31.390;34.904;2022-12-18T14:01:43;95284.28;;;28.78;99.74
70745;BME280;59284;31.390;34.904;2022-12-18T14:04:26;95292.44;;;27.35;100.00
70745;BME280;59284;31.390;34.904;2022-12-18T14:06:56;95283.69;;;27.35;100.00
70745;BME280;59284;31.390;34.904;2022-12-18T14:09:26;95291.31;;;27.26;100.00
70745;BME280;59284;31.390;34.904;2022-12-18T14:11:54;95287.13;;;27.17;100.00
70745;BME280;59284;31.390;34.904;2022-12-18T14:14:47;95287.66;;;26.02;100.00
70745;BME280;59284;31.390;34.904;2022-12-18T14:17:17;95295.66;;;26.09;100.00
70745;BME280;59284;31.390;34.904;2022-12-18T14:19:46;95291.41;;;25.87;100.00
70745;BME280;59284;31.390;34.904;2022-12-18T14:22:23;95292.53;;;25.21;100.00
70745;BME280;59284;31.390;34.904;2022-12-18T14:25:22;95295.69;;;24.49;100.00
70745;BME280;59284;31.390;34.904;2022-12-18T14:28:15;95300.91;;;23.79;100.00
70745;BME280;59284;31.390;34.904;2022-12-18T14:30:44;95302.16;;;23.10;100.00
70745;BME280;59284;31.390;34.904;2022-12-18T14:33:19;95305.66;;;22.50;100.00